createdAt,value
2022-08-03T00:02:19.929Z,27.30
2022-08-03T00:04:47.388Z,27.30
2022-08-03T00:07:14.757Z,27.30
2022-08-03T00:09:42.051Z,27.30
2022-08-03T00:12:09.622Z,27.30
2022-08-03T00:14:36.956Z,27.30
2022-08-03T00:17:04.328Z,27.30
2022-08-03T00:19:31.672Z,27.30
2022-08-03T00:21:58.899Z,27.30
2022-08-03T00:24:26.285Z,27.30
2022-08-03T00:26:53.575Z,27.30
2022-08-03T00:29:20.754Z,27.30
2022-08-03T00:31:52.790Z,27.30
2022-08-03T00:34:36.718Z,27.20
2022-08-03T00:37:14.305Z,27.20
2022-08-03T00:39:46.025Z,27.20
2022-08-03T00:42:14.190Z,27.20
2022-08-03T00:44:45.590Z,27.10
2022-08-03T00:47:13.348Z,27.10
2022-08-03T00:49:41.410Z,27.10
2022-08-03T00:52:13.792Z,27.10
2022-08-03T00:54:41.492Z,27.10
2022-08-03T00:57:09.247Z,27.10
2022-08-03T00:59:38.364Z,27.10
2022-08-03T01:02:06.193Z,27.10
2022-08-03T01:04:33.588Z,27.10
2022-08-03T01:07:20.784Z,27.20
2022-08-03T01:10:09.301Z,27.20
2022-08-03T01:12:49.581Z,27.20
2022-08-03T01:15:30.271Z,27.30
2022-08-03T01:18:06.115Z,27.40
2022-08-03T01:20:35.692Z,27.50
2022-08-03T01:23:32.372Z,27.60
2022-08-03T01:26:02.738Z,27.60
2022-08-03T01:28:49.298Z,27.70
2022-08-03T01:31:22.028Z,27.80
2022-08-03T01:33:57.203Z,27.80
2022-08-03T01:36:30.807Z,27.70
2022-08-03T01:39:01.552Z,27.70
2022-08-03T01:41:35.452Z,27.70
2022-08-03T01:44:29.571Z,27.70
2022-08-03T01:46:54.556Z,27.70
2022-08-03T01:49:22.048Z,27.70
2022-08-03T01:51:57.761Z,27.70
2022-08-03T01:54:36.342Z,27.70
2022-08-03T01:57:04.388Z,27.70
2022-08-03T01:59:34.906Z,27.80
2022-08-03T02:02:15.211Z,27.80
2022-08-03T02:04:52.884Z,27.80
2022-08-03T02:07:20.596Z,27.80
2022-08-03T02:09:51.602Z,27.80
2022-08-03T02:12:20.970Z,27.90
2022-08-03T02:14:49.521Z,27.80
2022-08-03T02:17:17.027Z,27.80
2022-08-03T02:19:44.884Z,27.70
2022-08-03T02:22:14.604Z,27.60
2022-08-03T02:24:42.213Z,27.50
2022-08-03T02:27:22.606Z,27.40
2022-08-03T02:30:00.650Z,27.30
2022-08-03T02:32:36.075Z,27.20
2022-08-03T02:35:06.185Z,27.10
2022-08-03T02:37:37.896Z,27.10
2022-08-03T02:40:12.149Z,27.00
2022-08-03T02:42:41.738Z,27.00
2022-08-03T02:45:15.063Z,26.90
2022-08-03T02:47:53.914Z,26.90
2022-08-03T02:50:24.204Z,26.80
2022-08-03T02:52:53.402Z,26.90
2022-08-03T02:55:22.912Z,26.90
2022-08-03T02:57:51.982Z,26.90
2022-08-03T03:00:27.582Z,26.90
2022-08-03T03:02:58.565Z,26.90
2022-08-03T03:05:56.453Z,26.80
2022-08-03T03:08:18.823Z,26.80
2022-08-03T03:10:55.733Z,26.70
2022-08-03T03:13:23.940Z,26.70
2022-08-03T03:15:53.110Z,26.60
2022-08-03T03:18:22.810Z,26.60
2022-08-03T03:20:53.194Z,26.60
2022-08-03T03:23:23.467Z,26.50
2022-08-03T03:25:51.563Z,26.50
2022-08-03T03:28:19.529Z,26.40
2022-08-03T03:30:52.890Z,26.40
2022-08-03T03:33:24.752Z,26.40
2022-08-03T03:35:52.959Z,26.40
2022-08-03T03:38:20.912Z,26.40
2022-08-03T03:40:48.744Z,26.40
2022-08-03T03:43:16.066Z,26.40
2022-08-03T03:45:44.315Z,26.40
2022-08-03T03:48:12.100Z,26.30
2022-08-03T03:50:42.023Z,26.40
2022-08-03T03:53:11.268Z,26.30
2022-08-03T03:55:58.900Z,26.30
2022-08-03T03:58:26.519Z,26.20
2022-08-03T04:00:54.104Z,26.20
2022-08-03T04:03:21.479Z,26.20
2022-08-03T04:06:07.127Z,26.10
2022-08-03T04:08:52.698Z,26.10
2022-08-03T04:11:46.012Z,26.10
2022-08-03T04:14:24.558Z,26.00
2022-08-03T04:16:58.357Z,26.00
2022-08-03T04:19:28.843Z,26.00
2022-08-03T04:22:00.456Z,26.00
2022-08-03T04:24:35.152Z,26.00
2022-08-03T04:27:05.108Z,26.00
2022-08-03T04:29:35.169Z,26.00
2022-08-03T04:32:08.023Z,26.00
2022-08-03T04:34:35.965Z,26.00
2022-08-03T04:37:11.120Z,26.00
2022-08-03T04:39:42.149Z,26.10
2022-08-03T04:42:12.892Z,26.10
2022-08-03T04:44:42.199Z,26.10
2022-08-03T04:47:09.410Z,26.10
2022-08-03T04:49:38.375Z,26.20
2022-08-03T04:52:08.084Z,26.20
2022-08-03T04:54:48.692Z,26.30
2022-08-03T04:57:22.126Z,26.30
2022-08-03T05:00:03.171Z,26.30
2022-08-03T05:02:32.208Z,26.40
2022-08-03T05:04:59.964Z,26.50
2022-08-03T05:07:34.076Z,26.50
2022-08-03T05:10:14.866Z,26.60
2022-08-03T05:12:46.106Z,26.70
2022-08-03T05:15:13.477Z,26.70
2022-08-03T05:17:40.855Z,26.70
2022-08-03T05:20:08.934Z,26.80
2022-08-03T05:22:36.170Z,26.80
2022-08-03T05:25:03.847Z,26.90
2022-08-03T05:27:31.117Z,26.90
2022-08-03T05:30:31.552Z,27.00
2022-08-03T05:32:48.493Z,27.10
2022-08-03T05:35:57.938Z,27.20
2022-08-03T05:38:03.557Z,27.30
2022-08-03T05:40:31.085Z,27.40
2022-08-03T05:42:59.222Z,27.50
2022-08-03T05:45:28.439Z,27.60
2022-08-03T05:47:56.055Z,27.70
2022-08-03T05:50:23.469Z,27.80
2022-08-03T05:52:50.838Z,27.90
2022-08-03T05:55:18.321Z,28.00
2022-08-03T05:57:48.108Z,28.10
2022-08-03T06:00:17.323Z,28.10
2022-08-03T06:02:44.613Z,28.20
2022-08-03T06:05:11.908Z,28.30
2022-08-03T06:07:39.213Z,28.40
2022-08-03T06:10:36.061Z,28.50
2022-08-03T06:12:59.532Z,28.60
2022-08-03T06:15:26.844Z,28.70
2022-08-03T06:17:57.602Z,28.80
2022-08-03T06:20:27.320Z,28.90
2022-08-03T06:23:00.929Z,29.10
2022-08-03T06:25:29.076Z,29.20
2022-08-03T06:27:56.631Z,29.30
2022-08-03T06:30:23.878Z,29.50
2022-08-03T06:32:51.667Z,29.50
2022-08-03T06:35:20.341Z,29.60
2022-08-03T06:37:51.144Z,29.80
2022-08-03T06:40:32.422Z,30.00
2022-08-03T06:43:03.037Z,30.20
2022-08-03T06:45:31.687Z,30.30
2022-08-03T06:48:12.987Z,30.40
2022-08-03T06:50:42.049Z,30.60
2022-08-03T06:53:18.157Z,30.80
2022-08-03T06:55:53.891Z,30.90
2022-08-03T06:58:22.173Z,30.80
2022-08-03T07:00:49.514Z,30.90
2022-08-03T07:03:17.232Z,31.10
2022-08-03T07:05:47.010Z,31.20
2022-08-03T07:08:15.175Z,31.30
2022-08-03T07:10:42.439Z,31.30
2022-08-03T07:13:10.142Z,31.40
2022-08-03T07:15:54.464Z,31.40
2022-08-03T07:18:29.504Z,31.40
2022-08-03T07:20:57.712Z,31.40
2022-08-03T07:23:25.807Z,31.30
2022-08-03T07:25:53.256Z,31.40
2022-08-03T07:28:21.062Z,31.30
2022-08-03T07:30:48.563Z,31.30
2022-08-03T07:33:16.142Z,31.30
2022-08-03T07:35:43.384Z,31.20
2022-08-03T07:38:10.671Z,31.00
2022-08-03T07:40:39.267Z,31.00
2022-08-03T07:43:08.312Z,31.20
2022-08-03T07:45:35.482Z,31.20
2022-08-03T07:48:02.665Z,31.30
2022-08-03T07:50:30.652Z,31.40
2022-08-03T07:52:58.273Z,31.50
2022-08-03T07:55:26.691Z,31.50
2022-08-03T07:58:05.951Z,31.50
2022-08-03T08:00:33.339Z,31.50
2022-08-03T08:03:09.617Z,31.40
2022-08-03T08:05:37.789Z,31.30
2022-08-03T08:08:05.295Z,31.40
2022-08-03T08:10:33.102Z,31.60
2022-08-03T08:13:00.503Z,31.60
2022-08-03T08:15:54.787Z,31.70
2022-08-03T08:18:25.289Z,31.70
2022-08-03T08:20:52.609Z,31.70
2022-08-03T08:23:37.705Z,31.60
2022-08-03T08:26:10.650Z,31.70
2022-08-03T08:28:38.036Z,31.90
2022-08-03T08:31:05.277Z,31.90
2022-08-03T08:34:02.650Z,32.00
2022-08-03T08:36:22.075Z,31.90
2022-08-03T08:38:49.365Z,32.10
2022-08-03T08:41:16.943Z,32.20
2022-08-03T08:43:44.336Z,32.30
2022-08-03T08:46:19.180Z,32.20
2022-08-03T08:48:52.648Z,32.20
2022-08-03T08:51:22.727Z,32.20
2022-08-03T08:53:54.680Z,32.20
2022-08-03T08:56:26.073Z,32.20
2022-08-03T08:58:58.220Z,32.20
2022-08-03T09:01:25.949Z,32.30
2022-08-03T09:03:54.351Z,32.30
2022-08-03T09:06:22.874Z,32.40
2022-08-03T09:08:50.217Z,32.40
2022-08-03T09:11:22.223Z,32.20
2022-08-03T09:14:10.695Z,32.00
2022-08-03T09:17:01.124Z,32.10
2022-08-03T09:19:31.063Z,32.30
2022-08-03T09:22:10.944Z,32.20
2022-08-03T09:24:41.845Z,32.20
2022-08-03T09:27:17.284Z,32.10
2022-08-03T09:29:52.007Z,32.00
2022-08-03T09:32:25.471Z,32.10
2022-08-03T09:34:57.903Z,32.20
2022-08-03T09:38:11.191Z,32.20
2022-08-03T09:40:36.815Z,32.40
2022-08-03T09:43:04.189Z,32.60
2022-08-03T09:45:31.404Z,32.10
2022-08-03T09:48:26.221Z,32.10
2022-08-03T09:51:12.970Z,32.20
2022-08-03T09:53:59.178Z,32.20
2022-08-03T09:56:42.202Z,32.20
2022-08-03T09:59:11.547Z,32.20
2022-08-03T10:01:42.519Z,32.30
2022-08-03T10:04:17.664Z,32.40
2022-08-03T10:07:04.519Z,32.20
2022-08-03T10:09:35.609Z,32.20
2022-08-03T10:12:17.432Z,32.40
2022-08-03T10:14:49.399Z,32.50
2022-08-03T10:17:25.872Z,32.40
2022-08-03T10:20:12.119Z,32.60
2022-08-03T10:22:42.455Z,32.40
2022-08-03T10:25:15.894Z,32.50
2022-08-03T10:27:47.552Z,32.70
2022-08-03T10:30:15.465Z,32.90
2022-08-03T10:33:05.360Z,32.80
2022-08-03T10:35:56.779Z,32.90
2022-08-03T10:38:32.897Z,32.90
2022-08-03T10:41:01.697Z,32.80
2022-08-03T10:43:53.390Z,32.80
2022-08-03T10:46:21.944Z,32.90
2022-08-03T10:48:51.881Z,32.90
2022-08-03T10:51:20.773Z,32.80
2022-08-03T10:53:54.844Z,32.90
2022-08-03T10:56:54.654Z,32.90
2022-08-03T10:59:46.903Z,32.90
2022-08-03T11:02:15.326Z,32.80
2022-08-03T11:04:47.334Z,32.80
2022-08-03T11:07:25.496Z,33.00
2022-08-03T11:09:57.195Z,33.20
2022-08-03T11:12:50.179Z,33.70
2022-08-03T11:15:33.925Z,34.40
2022-08-03T11:18:12.618Z,34.90
2022-08-03T11:21:00.516Z,35.20
2022-08-03T11:24:03.214Z,35.20
2022-08-03T11:26:33.454Z,35.50
2022-08-03T11:29:29.585Z,35.60
2022-08-03T11:32:11.531Z,35.90
2022-08-03T11:35:11.102Z,36.30
2022-08-03T11:38:03.174Z,36.30
2022-08-03T11:40:51.294Z,36.60
2022-08-03T11:43:35.306Z,37.20
2022-08-03T11:46:03.955Z,36.90
2022-08-03T11:48:47.295Z,36.90
2022-08-03T11:51:25.591Z,37.50
2022-08-03T11:54:08.603Z,38.20
2022-08-03T11:56:50.738Z,38.60
2022-08-03T11:59:22.239Z,38.90
2022-08-03T12:02:07.785Z,38.60
2022-08-03T12:05:06.493Z,37.90
2022-08-03T12:08:04.398Z,38.00
2022-08-03T12:10:48.845Z,38.60
2022-08-03T12:14:44.261Z,38.50
2022-08-03T12:16:12.822Z,38.70
2022-08-03T12:18:40.114Z,38.60
2022-08-03T12:21:15.003Z,38.40
2022-08-03T12:23:45.179Z,38.30
2022-08-03T12:26:12.321Z,39.10
2022-08-03T12:28:49.856Z,39.40
2022-08-03T12:31:17.476Z,39.40
2022-08-03T12:34:03.502Z,39.80
2022-08-03T12:36:32.524Z,40.20
2022-08-03T12:39:06.033Z,39.40
2022-08-03T12:41:35.739Z,38.30
2022-08-03T12:44:04.265Z,37.50
2022-08-03T12:46:37.618Z,37.00
2022-08-03T12:49:13.618Z,37.10
2022-08-03T12:51:43.830Z,37.70
2022-08-03T12:54:18.342Z,38.40
2022-08-03T12:57:02.610Z,39.00
2022-08-03T12:59:35.063Z,39.10
2022-08-03T13:02:24.241Z,38.60
2022-08-03T13:04:54.273Z,37.80
2022-08-03T13:07:22.938Z,37.10
2022-08-03T13:09:53.133Z,36.20
2022-08-03T13:12:25.545Z,35.40
2022-08-03T13:14:58.575Z,35.00
2022-08-03T13:17:27.188Z,34.40
2022-08-03T13:19:54.915Z,34.00
2022-08-03T13:22:29.050Z,33.90
2022-08-03T13:25:01.430Z,33.80
2022-08-03T13:28:04.517Z,34.20
2022-08-03T13:30:24.961Z,34.20
2022-08-03T13:32:58.899Z,33.80
2022-08-03T13:35:26.314Z,33.60
2022-08-03T13:37:53.623Z,33.40
2022-08-03T13:40:23.651Z,34.00
2022-08-03T13:42:57.255Z,35.10
2022-08-03T13:45:24.957Z,35.40
2022-08-03T13:47:52.387Z,36.10
2022-08-03T13:50:19.703Z,37.00
2022-08-03T13:52:47.638Z,37.30
2022-08-03T13:55:14.907Z,37.10
2022-08-03T13:58:02.299Z,37.10
2022-08-03T14:00:29.833Z,37.00
2022-08-03T14:03:14.916Z,36.90
2022-08-03T14:05:50.569Z,36.70
2022-08-03T14:08:19.689Z,37.10
2022-08-03T14:10:47.779Z,37.70
2022-08-03T14:13:17.516Z,38.30
2022-08-03T14:15:58.472Z,38.70
2022-08-03T14:18:27.855Z,38.70
2022-08-03T14:21:04.952Z,38.50
2022-08-03T14:23:33.973Z,38.00
2022-08-03T14:26:03.530Z,37.00
2022-08-03T14:28:30.868Z,36.10
2022-08-03T14:30:58.301Z,35.80
2022-08-03T14:33:26.302Z,35.30
2022-08-03T14:35:53.818Z,34.90
2022-08-03T14:38:21.339Z,34.50
2022-08-03T14:40:49.274Z,34.20
2022-08-03T14:43:21.572Z,33.50
2022-08-03T14:45:52.539Z,33.20
2022-08-03T14:50:29.741Z,33.20
2022-08-03T14:51:07.726Z,33.30
2022-08-03T14:53:35.082Z,33.30
2022-08-03T14:56:05.307Z,33.30
2022-08-03T14:58:36.878Z,33.10
2022-08-03T15:01:04.304Z,33.10
2022-08-03T15:03:51.647Z,33.10
2022-08-03T15:06:18.945Z,33.10
2022-08-03T15:09:00.498Z,33.00
2022-08-03T15:11:33.673Z,32.90
2022-08-03T15:14:01.932Z,32.70
2022-08-03T15:16:30.641Z,32.60
2022-08-03T15:18:58.238Z,32.30
2022-08-03T15:21:46.259Z,32.20
2022-08-03T15:24:16.141Z,32.00
2022-08-03T15:26:43.612Z,31.90
2022-08-03T15:29:10.952Z,31.90
2022-08-03T15:31:58.293Z,32.00
2022-08-03T15:34:29.900Z,32.00
2022-08-03T15:36:57.425Z,32.00
2022-08-03T15:39:24.673Z,32.20
2022-08-03T15:41:52.013Z,32.30
2022-08-03T15:44:20.180Z,32.30
2022-08-03T15:46:47.972Z,32.30
2022-08-03T15:49:16.692Z,32.40
2022-08-03T15:51:44.118Z,32.40
2022-08-03T15:54:11.373Z,32.40
2022-08-03T15:56:39.001Z,32.30
2022-08-03T15:59:12.611Z,32.20
2022-08-03T16:01:41.223Z,32.00
2022-08-03T16:04:08.970Z,31.80
2022-08-03T16:06:36.554Z,31.80
2022-08-03T16:09:23.591Z,31.70
2022-08-03T16:11:55.894Z,31.80
2022-08-03T16:14:34.685Z,31.80
2022-08-03T16:17:07.793Z,31.90
2022-08-03T16:19:35.659Z,31.90
2022-08-03T16:22:03.339Z,31.80
2022-08-03T16:24:31.093Z,31.70
2022-08-03T16:27:00.467Z,31.60
2022-08-03T16:29:28.698Z,31.50
2022-08-03T16:31:55.981Z,31.40
2022-08-03T16:34:23.463Z,31.30
2022-08-03T16:36:51.374Z,31.20
2022-08-03T16:39:18.714Z,31.20
2022-08-03T16:41:54.490Z,31.10
2022-08-03T16:44:30.705Z,31.00
2022-08-03T16:46:59.550Z,30.90
2022-08-03T16:49:53.743Z,30.80
2022-08-03T16:52:16.604Z,30.80
2022-08-03T16:54:50.621Z,30.70
2022-08-03T16:57:55.911Z,30.60
2022-08-03T17:00:11.927Z,30.60
2022-08-03T17:02:43.048Z,30.60
2022-08-03T17:05:15.759Z,30.60
2022-08-03T17:07:50.748Z,30.60
2022-08-03T17:10:27.466Z,30.40
2022-08-03T17:12:54.881Z,30.30
2022-08-03T17:15:38.487Z,30.20
2022-08-03T17:18:17.924Z,30.20
2022-08-03T17:20:50.946Z,30.10
2022-08-03T17:23:46.341Z,30.20
2022-08-03T17:26:21.518Z,30.10
2022-08-03T17:28:57.438Z,30.10
2022-08-03T17:31:31.431Z,30.00
2022-08-03T17:34:04.546Z,29.90
2022-08-03T17:39:35.886Z,29.90
2022-08-03T17:45:02.162Z,29.90
2022-08-03T17:47:41.232Z,29.80
2022-08-03T17:50:24.805Z,29.80
2022-08-03T17:53:07.655Z,29.70
2022-08-03T17:55:51.988Z,29.70
2022-08-03T17:59:00.974Z,29.60
2022-08-03T18:02:33.236Z,29.60
2022-08-03T18:05:16.770Z,29.60
2022-08-03T18:08:01.660Z,29.50
2022-08-03T18:10:34.968Z,29.40
2022-08-03T18:13:10.935Z,29.30
2022-08-03T18:15:43.518Z,29.30
2022-08-03T18:18:14.269Z,29.20
2022-08-03T18:20:45.797Z,29.10
2022-08-03T18:23:24.771Z,29.10
2022-08-03T18:26:07.070Z,29.10
2022-08-03T18:28:36.102Z,29.00
2022-08-03T18:31:05.705Z,29.10
2022-08-03T18:34:19.924Z,29.10
2022-08-03T18:36:31.117Z,29.10
2022-08-03T18:39:02.434Z,29.00
2022-08-03T18:41:35.021Z,29.00
2022-08-03T18:44:09.360Z,28.90
2022-08-03T18:47:18.298Z,28.90
2022-08-03T18:49:55.647Z,28.90
2022-08-03T18:52:35.521Z,28.90
2022-08-03T18:55:35.290Z,28.90
2022-08-03T18:58:32.972Z,28.90
2022-08-03T19:02:00.339Z,28.90
2022-08-03T19:04:18.670Z,28.90
2022-08-03T19:07:01.771Z,28.90
2022-08-03T19:09:52.884Z,28.90
2022-08-03T19:12:33.849Z,28.90
2022-08-03T19:15:10.438Z,28.90
2022-08-03T19:17:52.661Z,28.90
2022-08-03T19:20:31.150Z,28.90
2022-08-03T19:22:59.957Z,28.90
2022-08-03T19:25:34.822Z,28.90
2022-08-03T19:30:56.740Z,28.90
2022-08-03T19:33:29.989Z,28.90
2022-08-03T19:35:58.203Z,28.80
2022-08-03T19:38:29.522Z,28.80
2022-08-03T19:41:03.509Z,28.90
2022-08-03T19:43:53.836Z,28.90
2022-08-03T19:46:31.514Z,28.90
2022-08-03T19:49:14.489Z,28.90
2022-08-03T19:52:00.635Z,28.90
2022-08-03T19:54:53.047Z,28.90
2022-08-03T19:57:25.034Z,28.90
2022-08-03T19:59:54.486Z,28.90
2022-08-03T20:02:27.268Z,28.90
2022-08-03T20:04:57.312Z,28.80
2022-08-03T20:07:26.327Z,28.80
2022-08-03T20:09:56.438Z,28.80
2022-08-03T20:12:28.263Z,28.80
2022-08-03T20:14:58.209Z,28.80
2022-08-03T20:17:55.474Z,28.70
2022-08-03T20:20:14.068Z,28.70
2022-08-03T20:22:46.080Z,28.70
2022-08-03T20:25:16.224Z,28.70
2022-08-03T20:28:06.856Z,28.60
2022-08-03T20:30:44.372Z,28.60
2022-08-03T20:33:18.621Z,28.60
2022-08-03T20:35:49.295Z,28.50
2022-08-03T20:38:19.116Z,28.50
2022-08-03T20:40:48.194Z,28.50
2022-08-03T20:43:19.980Z,28.50
2022-08-03T20:45:59.098Z,28.50
2022-08-03T20:48:37.290Z,28.50
2022-08-03T20:51:19.341Z,28.50
2022-08-03T20:54:00.591Z,28.50
2022-08-03T20:56:36.320Z,28.50
2022-08-03T20:59:06.565Z,28.50
2022-08-03T21:01:36.818Z,28.50
2022-08-03T21:04:09.523Z,28.50
2022-08-03T21:06:52.988Z,28.40
2022-08-03T21:09:39.867Z,28.40
2022-08-03T21:12:12.111Z,28.50
2022-08-03T21:13:04.989Z,29.90
2022-08-03T21:13:10.080Z,28.90
2022-08-03T21:15:01.366Z,28.50
2022-08-03T21:17:40.672Z,28.40
2022-08-03T21:20:10.647Z,28.40
2022-08-03T21:22:39.689Z,28.40
2022-08-03T21:25:09.438Z,28.30
2022-08-03T21:27:37.403Z,28.30
2022-08-03T21:30:10.723Z,28.30
2022-08-03T21:32:41.311Z,28.30
2022-08-03T21:35:10.823Z,28.30
2022-08-03T21:37:42.619Z,28.30
2022-08-03T21:40:12.622Z,28.30
2022-08-03T21:42:41.454Z,28.30
2022-08-03T21:45:17.167Z,28.20
2022-08-03T21:47:48.787Z,28.30
2022-08-03T21:50:17.053Z,28.30
2022-08-03T21:52:46.297Z,28.20
2022-08-03T21:55:18.635Z,28.20
2022-08-03T21:57:53.337Z,28.20
2022-08-03T22:00:23.365Z,28.20
2022-08-03T22:02:57.443Z,28.20
2022-08-03T22:05:42.523Z,28.20
2022-08-03T22:08:13.561Z,28.20
2022-08-03T22:10:44.133Z,28.20
2022-08-03T22:13:13.401Z,28.20
2022-08-03T22:15:41.570Z,28.20
2022-08-03T22:18:11.284Z,28.20
2022-08-03T22:20:38.623Z,28.10
2022-08-03T22:23:07.420Z,28.10
2022-08-03T22:25:38.570Z,28.10
2022-08-03T22:28:09.641Z,28.10
2022-08-03T22:30:38.297Z,28.00
2022-08-03T22:33:11.126Z,28.10
2022-08-03T22:35:49.850Z,28.10
2022-08-03T22:38:18.527Z,28.10
2022-08-03T22:40:49.171Z,28.10
2022-08-03T22:43:17.083Z,28.10
2022-08-03T22:46:09.427Z,28.10
2022-08-03T22:48:37.170Z,28.00
2022-08-03T22:51:09.536Z,28.00
2022-08-03T22:53:37.147Z,28.00
2022-08-03T22:56:05.048Z,28.10
2022-08-03T22:58:32.286Z,28.10
2022-08-03T23:01:46.151Z,28.10
2022-08-03T23:04:13.841Z,28.20
2022-08-03T23:06:43.029Z,28.10
2022-08-03T23:09:13.027Z,28.10
2022-08-03T23:11:45.419Z,28.10
2022-08-03T23:14:16.216Z,28.00
2022-08-03T23:16:45.522Z,28.00
2022-08-03T23:19:17.025Z,28.00
2022-08-03T23:22:02.444Z,28.00
2022-08-03T23:24:38.262Z,28.00
2022-08-03T23:27:07.803Z,28.00
2022-08-03T23:29:37.321Z,28.00
2022-08-03T23:32:06.218Z,28.00
2022-08-03T23:34:53.094Z,28.00
2022-08-03T23:37:20.819Z,28.00
2022-08-03T23:39:49.191Z,27.90
2022-08-03T23:42:21.925Z,27.90
2022-08-03T23:44:53.835Z,27.80
2022-08-03T23:47:21.508Z,27.80
2022-08-03T23:49:49.993Z,27.70
2022-08-03T23:53:01.865Z,27.70
2022-08-03T23:56:09.895Z,27.70
2022-08-03T23:58:51.945Z,27.60
